createdAt,value
2019-06-08T00:02:27.820Z,15.90
2019-06-08T00:04:56.629Z,16.00
2019-06-08T00:07:25.242Z,16.00
2019-06-08T00:09:53.926Z,16.00
2019-06-08T00:12:23.233Z,16.00
2019-06-08T00:14:52.122Z,16.00
2019-06-08T00:17:35.522Z,16.20
2019-06-08T00:19:51.229Z,16.00
2019-06-08T00:22:19.845Z,16.00
2019-06-08T00:24:48.527Z,16.10
2019-06-08T00:27:20.244Z,16.10
2019-06-08T00:29:47.579Z,16.10
2019-06-08T00:32:16.265Z,16.10
2019-06-08T00:34:44.981Z,16.10
2019-06-08T00:37:14.579Z,16.10
2019-06-08T00:39:43.345Z,16.10
2019-06-08T00:42:11.998Z,16.10
2019-06-08T00:44:40.683Z,16.10
2019-06-08T00:47:09.373Z,16.00
2019-06-08T00:49:38.091Z,16.00
2019-06-08T00:52:06.777Z,16.10
2019-06-08T00:54:35.454Z,16.00
2019-06-08T00:57:04.562Z,16.00
2019-06-08T00:59:33.280Z,16.00
2019-06-08T01:02:01.931Z,16.00
2019-06-08T01:04:30.647Z,16.00
2019-06-08T01:06:59.660Z,16.00
2019-06-08T01:09:28.345Z,16.00
2019-06-08T01:11:57.206Z,16.00
2019-06-08T01:14:27.052Z,16.00
2019-06-08T01:16:55.990Z,16.00
2019-06-08T01:19:25.171Z,16.00
2019-06-08T01:21:53.900Z,16.10
2019-06-08T01:24:23.725Z,16.10
2019-06-08T01:26:52.461Z,16.10
2019-06-08T01:29:22.256Z,16.10
2019-06-08T01:31:51.037Z,16.10
2019-06-08T01:34:20.606Z,16.10
2019-06-08T01:36:49.312Z,16.10
2019-06-08T01:39:18.030Z,16.10
2019-06-08T01:41:46.814Z,16.00
2019-06-08T01:44:15.422Z,16.10
2019-06-08T01:46:44.111Z,16.00
2019-06-08T01:49:13.035Z,15.90
2019-06-08T01:51:41.725Z,15.90
2019-06-08T01:54:10.606Z,15.90
2019-06-08T01:56:39.326Z,15.90
2019-06-08T01:59:07.930Z,15.90
2019-06-08T02:01:36.547Z,15.90
2019-06-08T02:04:05.462Z,15.90
2019-06-08T02:06:34.659Z,15.90
2019-06-08T02:09:05.137Z,15.90
2019-06-08T02:11:34.883Z,15.90
2019-06-08T02:14:04.322Z,15.80
2019-06-08T02:16:33.386Z,15.80
2019-06-08T02:19:02.142Z,15.60
2019-06-08T02:21:30.884Z,15.60
2019-06-08T02:23:59.710Z,15.60
2019-06-08T02:26:29.258Z,15.60
2019-06-08T02:28:58.774Z,15.60
2019-06-08T02:31:27.958Z,15.70
2019-06-08T02:33:57.155Z,15.70
2019-06-08T02:36:25.839Z,15.70
2019-06-08T02:38:54.523Z,15.70
2019-06-08T02:41:23.229Z,15.60
2019-06-08T02:43:51.839Z,15.60
2019-06-08T02:46:20.523Z,15.50
2019-06-08T02:49:03.535Z,15.40
2019-06-08T02:51:20.766Z,15.40
2019-06-08T02:53:50.546Z,15.40
2019-06-08T02:56:21.485Z,15.50
2019-06-08T02:58:51.993Z,15.50
2019-06-08T03:01:22.379Z,15.40
2019-06-08T03:03:52.862Z,15.40
2019-06-08T03:06:22.050Z,15.40
2019-06-08T03:08:51.522Z,15.50
2019-06-08T03:11:21.226Z,15.40
2019-06-08T03:13:51.524Z,15.40
2019-06-08T03:16:20.186Z,15.40
2019-06-08T03:18:49.150Z,15.40
2019-06-08T03:21:17.836Z,15.40
2019-06-08T03:23:46.521Z,15.50
2019-06-08T03:26:15.229Z,15.50
2019-06-08T03:28:44.500Z,15.50
2019-06-08T03:31:13.558Z,15.50
2019-06-08T03:33:50.876Z,15.50
2019-06-08T03:36:12.778Z,15.40
2019-06-08T03:38:42.549Z,15.50
2019-06-08T03:41:12.111Z,15.40
2019-06-08T03:43:42.372Z,15.40
2019-06-08T03:46:11.535Z,15.50
2019-06-08T03:48:42.168Z,15.50
2019-06-08T03:51:11.180Z,15.50
2019-06-08T03:53:40.540Z,15.40
2019-06-08T03:56:10.452Z,15.40
2019-06-08T03:58:40.565Z,15.40
2019-06-08T04:01:09.465Z,15.30
2019-06-08T04:03:39.768Z,15.40
2019-06-08T04:06:08.514Z,15.30
2019-06-08T04:08:38.422Z,15.30
2019-06-08T04:11:07.905Z,15.20
2019-06-08T04:13:37.733Z,15.30
2019-06-08T04:16:06.571Z,15.20
2019-06-08T04:18:35.419Z,15.20
2019-06-08T04:21:04.118Z,15.20
2019-06-08T04:23:32.785Z,15.20
2019-06-08T04:26:03.946Z,15.20
2019-06-08T04:28:32.635Z,15.20
2019-06-08T04:31:01.321Z,15.20
2019-06-08T04:33:30.029Z,15.20
2019-06-08T04:35:59.052Z,15.20
2019-06-08T04:38:28.053Z,15.20
2019-06-08T04:40:56.758Z,15.20
2019-06-08T04:43:25.550Z,15.20
2019-06-08T04:45:54.227Z,15.20
2019-06-08T04:48:23.075Z,15.10
2019-06-08T04:50:51.759Z,15.20
2019-06-08T04:53:20.432Z,15.20
2019-06-08T04:55:49.454Z,15.10
2019-06-08T04:58:18.376Z,15.00
2019-06-08T05:00:48.783Z,15.00
2019-06-08T05:03:17.367Z,15.00
2019-06-08T05:05:47.666Z,15.00
2019-06-08T05:08:16.392Z,15.10
2019-06-08T05:10:45.352Z,15.10
2019-06-08T05:13:14.085Z,15.10
2019-06-08T05:15:43.261Z,15.10
2019-06-08T05:18:12.028Z,15.00
2019-06-08T05:20:43.372Z,15.00
2019-06-08T05:23:14.125Z,15.10
2019-06-08T05:25:43.118Z,15.10
2019-06-08T05:28:11.828Z,15.20
2019-06-08T05:30:41.294Z,15.20
2019-06-08T05:33:10.082Z,15.20
2019-06-08T05:35:39.428Z,15.20
2019-06-08T05:38:08.154Z,15.20
2019-06-08T05:40:37.171Z,15.20
2019-06-08T05:43:05.854Z,15.20
2019-06-08T05:45:34.589Z,15.20
2019-06-08T05:48:03.253Z,15.30
2019-06-08T05:50:31.936Z,15.30
2019-06-08T05:53:00.613Z,15.30
2019-06-08T05:55:29.266Z,15.20
2019-06-08T05:57:57.948Z,15.30
2019-06-08T06:00:26.634Z,15.30
2019-06-08T06:02:55.356Z,15.40
2019-06-08T06:05:24.030Z,15.40
2019-06-08T06:07:52.715Z,15.40
2019-06-08T06:10:21.428Z,15.50
2019-06-08T06:12:51.202Z,15.50
2019-06-08T06:15:19.993Z,15.50
2019-06-08T06:17:49.841Z,15.60
2019-06-08T06:20:19.118Z,15.50
2019-06-08T06:22:47.833Z,15.60
2019-06-08T06:25:16.747Z,15.60
2019-06-08T06:27:45.762Z,15.70
2019-06-08T06:30:16.054Z,15.70
2019-06-08T06:32:45.996Z,15.70
2019-06-08T06:35:15.806Z,15.70
2019-06-08T06:37:45.815Z,15.80
2019-06-08T06:40:14.668Z,15.90
2019-06-08T06:42:43.847Z,15.80
2019-06-08T06:45:12.832Z,15.90
2019-06-08T06:47:42.242Z,15.80
2019-06-08T06:50:11.222Z,15.70
2019-06-08T06:52:39.962Z,15.70
2019-06-08T06:55:08.988Z,15.70
2019-06-08T06:57:37.670Z,15.60
2019-06-08T07:00:07.631Z,15.70
2019-06-08T07:02:36.368Z,15.70
2019-06-08T07:05:06.823Z,15.60
2019-06-08T07:07:35.834Z,15.60
2019-06-08T07:10:06.962Z,15.60
2019-06-08T07:12:35.642Z,15.60
2019-06-08T07:15:06.342Z,15.60
2019-06-08T07:17:35.400Z,15.60
2019-06-08T07:20:05.882Z,15.60
2019-06-08T07:22:34.499Z,15.60
2019-06-08T07:25:05.293Z,15.50
2019-06-08T07:27:33.981Z,15.40
2019-06-08T07:30:02.796Z,15.40
2019-06-08T07:32:31.620Z,15.50
2019-06-08T07:35:00.303Z,15.60
2019-06-08T07:37:29.549Z,15.60
2019-06-08T07:40:00.028Z,15.60
2019-06-08T07:42:28.702Z,15.60
2019-06-08T07:44:57.688Z,15.50
2019-06-08T07:47:26.406Z,15.60
2019-06-08T07:49:55.589Z,15.60
2019-06-08T07:52:24.382Z,15.70
2019-06-08T07:54:54.373Z,15.70
2019-06-08T07:57:23.362Z,15.70
2019-06-08T07:59:53.211Z,15.70
2019-06-08T08:02:22.598Z,15.70
2019-06-08T08:04:52.432Z,15.70
2019-06-08T08:07:21.274Z,15.70
2019-06-08T08:09:50.549Z,15.70
2019-06-08T08:12:19.347Z,15.80
2019-06-08T08:14:48.754Z,15.70
2019-06-08T08:17:17.633Z,15.80
2019-06-08T08:19:46.431Z,15.80
2019-06-08T08:22:25.057Z,15.90
2019-06-08T08:24:48.178Z,16.00
2019-06-08T08:27:17.897Z,16.10
2019-06-08T08:29:47.575Z,16.20
2019-06-08T08:32:18.841Z,16.30
2019-06-08T08:34:47.615Z,16.30
2019-06-08T08:37:17.579Z,16.30
2019-06-08T08:39:47.395Z,16.30
2019-06-08T08:42:18.041Z,16.40
2019-06-08T08:44:48.544Z,16.40
2019-06-08T08:47:18.674Z,16.40
2019-06-08T08:49:47.968Z,16.40
2019-06-08T08:52:17.486Z,16.40
2019-06-08T08:54:47.473Z,16.50
2019-06-08T08:57:18.157Z,16.40
2019-06-08T08:59:47.716Z,16.60
2019-06-08T09:02:21.143Z,16.70
2019-06-08T09:04:47.745Z,16.70
2019-06-08T09:07:18.425Z,16.80
2019-06-08T09:09:48.249Z,17.00
2019-06-08T09:12:18.313Z,17.00
2019-06-08T09:14:47.951Z,17.20
2019-06-08T09:17:18.105Z,17.30
2019-06-08T09:19:48.014Z,17.40
2019-06-08T09:22:18.774Z,17.50
2019-06-08T09:24:48.624Z,17.40
2019-06-08T09:27:17.931Z,17.40
2019-06-08T09:29:48.194Z,17.40
2019-06-08T09:32:17.973Z,17.40
2019-06-08T09:34:48.285Z,17.40
2019-06-08T09:37:18.530Z,17.50
2019-06-08T09:39:48.309Z,17.60
2019-06-08T09:42:20.965Z,17.70
2019-06-08T09:44:48.262Z,17.70
2019-06-08T09:47:18.150Z,17.70
2019-06-08T09:49:48.017Z,17.70
2019-06-08T09:52:18.371Z,17.80
2019-06-08T09:54:48.121Z,17.80
2019-06-08T09:57:18.802Z,18.00
2019-06-08T09:59:48.207Z,18.00
2019-06-08T10:02:18.421Z,18.00
2019-06-08T10:04:48.405Z,18.00
2019-06-08T10:07:18.665Z,18.00
2019-06-08T10:09:50.004Z,18.00
2019-06-08T10:12:18.539Z,18.00
2019-06-08T10:14:49.038Z,18.00
2019-06-08T10:17:20.565Z,18.00
2019-06-08T10:19:47.912Z,18.10
2019-06-08T10:22:18.276Z,18.30
2019-06-08T10:24:49.094Z,18.30
2019-06-08T10:27:18.754Z,18.40
2019-06-08T10:29:48.350Z,18.40
2019-06-08T10:32:18.797Z,18.30
2019-06-08T10:34:48.174Z,18.20
2019-06-08T10:37:18.693Z,18.30
2019-06-08T10:39:47.893Z,18.40
2019-06-08T10:42:18.023Z,18.60
2019-06-08T10:44:46.967Z,18.60
2019-06-08T10:47:15.687Z,18.70
2019-06-08T10:49:44.376Z,18.70
2019-06-08T10:52:13.035Z,18.80
2019-06-08T10:54:41.806Z,18.80
2019-06-08T10:57:10.715Z,18.90
2019-06-08T10:59:40.289Z,18.90
2019-06-08T11:02:13.720Z,19.00
2019-06-08T11:04:43.181Z,19.10
2019-06-08T11:07:15.523Z,19.10
2019-06-08T11:09:40.641Z,19.20
2019-06-08T11:12:14.625Z,19.30
2019-06-08T11:14:40.743Z,19.40
2019-06-08T11:17:11.180Z,19.50
2019-06-08T11:19:41.201Z,19.50
2019-06-08T11:22:14.333Z,19.50
2019-06-08T11:24:40.582Z,19.60
2019-06-08T11:27:12.707Z,19.60
2019-06-08T11:29:39.968Z,19.60
2019-06-08T11:32:11.823Z,19.60
2019-06-08T11:34:39.042Z,19.80
2019-06-08T11:37:11.533Z,19.70
2019-06-08T11:39:38.328Z,19.70
2019-06-08T11:42:10.659Z,19.80
2019-06-08T11:44:39.040Z,19.80
2019-06-08T11:47:12.260Z,19.80
2019-06-08T11:49:38.455Z,19.90
2019-06-08T11:52:08.947Z,19.90
2019-06-08T11:54:40.839Z,20.00
2019-06-08T11:57:10.848Z,20.00
2019-06-08T11:59:39.665Z,19.90
2019-06-08T12:02:11.096Z,20.00
2019-06-08T12:04:38.883Z,20.10
2019-06-08T12:07:09.561Z,20.10
2019-06-08T12:09:39.565Z,20.20
2019-06-08T12:12:12.317Z,20.20
2019-06-08T12:14:40.528Z,20.30
2019-06-08T12:17:13.509Z,20.40
2019-06-08T12:19:39.742Z,20.50
2019-06-08T12:22:09.951Z,20.50
2019-06-08T12:24:42.448Z,20.50
2019-06-08T12:27:20.240Z,20.60
2019-06-08T12:29:39.594Z,20.60
2019-06-08T12:32:10.416Z,20.60
2019-06-08T12:34:38.633Z,20.70
2019-06-08T12:37:12.175Z,20.80
2019-06-08T12:39:38.777Z,21.10
2019-06-08T12:42:09.602Z,21.10
2019-06-08T12:44:38.428Z,21.10
2019-06-08T12:47:12.596Z,21.30
2019-06-08T12:49:40.000Z,21.30
2019-06-08T12:52:12.049Z,21.30
2019-06-08T12:54:38.482Z,21.40
2019-06-08T12:57:10.273Z,21.30
2019-06-08T12:59:38.462Z,21.30
2019-06-08T13:02:14.842Z,21.50
2019-06-08T13:04:39.526Z,21.50
2019-06-08T13:07:10.117Z,21.60
2019-06-08T13:09:38.847Z,21.70
2019-06-08T13:12:09.354Z,21.90
2019-06-08T13:14:38.548Z,22.00
2019-06-08T13:17:08.694Z,21.90
2019-06-08T13:19:38.827Z,22.10
2019-06-08T13:22:08.944Z,22.20
2019-06-08T13:24:38.054Z,22.70
2019-06-08T13:27:06.949Z,23.00
2019-06-08T13:29:35.708Z,23.20
2019-06-08T13:32:05.028Z,23.70
2019-06-08T13:34:34.036Z,23.80
2019-06-08T13:37:03.416Z,24.10
2019-06-08T13:39:32.185Z,24.10
2019-06-08T13:42:00.875Z,24.70
2019-06-08T13:44:29.903Z,24.80
2019-06-08T13:46:58.946Z,24.80
2019-06-08T13:49:30.801Z,24.90
2019-06-08T13:51:58.550Z,24.80
2019-06-08T13:54:28.464Z,24.60
2019-06-08T13:56:58.967Z,24.80
2019-06-08T13:59:30.794Z,25.50
2019-06-08T14:01:58.745Z,25.50
2019-06-08T14:04:27.809Z,25.80
2019-06-08T14:06:58.143Z,26.60
2019-06-08T14:09:31.565Z,26.90
2019-06-08T14:11:58.515Z,26.80
2019-06-08T14:14:29.039Z,27.50
2019-06-08T14:16:58.657Z,27.80
2019-06-08T14:19:29.682Z,27.70
2019-06-08T14:21:58.025Z,28.00
2019-06-08T14:24:32.118Z,28.40
2019-06-08T14:26:58.466Z,29.30
2019-06-08T14:29:28.975Z,28.70
2019-06-08T14:31:57.965Z,28.70
2019-06-08T14:34:29.327Z,28.80
2019-06-08T14:36:59.230Z,28.90
2019-06-08T14:39:30.014Z,28.80
2019-06-08T14:41:58.663Z,28.20
2019-06-08T14:44:31.349Z,28.40
2019-06-08T14:46:58.060Z,29.20
2019-06-08T14:49:33.834Z,29.60
2019-06-08T14:51:57.969Z,30.00
2019-06-08T14:54:32.803Z,30.20
2019-06-08T14:56:57.822Z,30.20
2019-06-08T14:59:29.605Z,30.50
2019-06-08T15:01:57.414Z,30.40
2019-06-08T15:04:28.443Z,30.10
2019-06-08T15:06:58.443Z,29.90
2019-06-08T15:12:06.469Z,30.00
2019-06-08T15:14:37.694Z,30.50
2019-06-08T15:17:05.586Z,30.20
2019-06-08T15:19:34.532Z,30.80
2019-06-08T15:22:03.268Z,31.20
2019-06-08T15:24:32.931Z,31.50
2019-06-08T15:27:03.866Z,31.30
2019-06-08T15:29:32.907Z,31.50
2019-06-08T15:32:01.823Z,31.10
2019-06-08T15:34:32.764Z,30.50
2019-06-08T15:37:00.854Z,30.60
2019-06-08T15:39:32.538Z,30.80
2019-06-08T15:42:00.288Z,30.60
2019-06-08T15:44:30.437Z,30.10
2019-06-08T15:46:59.493Z,30.30
2019-06-08T15:49:29.464Z,30.00
2019-06-08T15:51:58.458Z,30.00
2019-06-08T15:54:32.248Z,29.90
2019-06-08T15:56:58.469Z,30.10
2019-06-08T15:59:28.640Z,30.30
2019-06-08T16:01:59.041Z,30.00
2019-06-08T16:04:27.842Z,29.30
2019-06-08T16:06:56.601Z,28.20
2019-06-08T16:09:25.947Z,28.00
2019-06-08T16:11:55.367Z,27.90
2019-06-08T16:14:24.942Z,27.30
2019-06-08T16:16:53.781Z,26.50
2019-06-08T16:19:22.897Z,25.80
2019-06-08T16:21:51.772Z,25.40
2019-06-08T16:24:20.886Z,25.10
2019-06-08T16:26:53.302Z,24.70
2019-06-08T16:29:20.532Z,24.50
2019-06-08T16:31:49.490Z,24.20
2019-06-08T16:34:18.252Z,23.90
2019-06-08T16:36:46.982Z,23.70
2019-06-08T16:39:15.702Z,23.60
2019-06-08T16:41:44.409Z,23.60
2019-06-08T16:44:13.094Z,23.50
2019-06-08T16:46:41.872Z,23.50
2019-06-08T16:49:10.590Z,23.30
2019-06-08T16:51:39.908Z,23.10
2019-06-08T16:54:08.659Z,23.10
2019-06-08T16:56:37.378Z,23.10
2019-06-08T16:59:06.142Z,23.00
2019-06-08T17:01:35.128Z,22.90
2019-06-08T17:04:03.841Z,22.70
2019-06-08T17:06:35.231Z,22.60
2019-06-08T17:09:03.063Z,22.60
2019-06-08T17:11:31.839Z,22.50
2019-06-08T17:14:00.740Z,22.50
2019-06-08T17:16:30.000Z,22.50
2019-06-08T17:18:58.813Z,22.50
2019-06-08T17:21:27.564Z,22.50
2019-06-08T17:23:56.253Z,22.40
2019-06-08T17:26:24.981Z,22.30
2019-06-08T17:28:53.671Z,22.30
2019-06-08T17:31:22.379Z,22.20
2019-06-08T17:33:51.113Z,22.20
2019-06-08T17:36:20.142Z,22.10
2019-06-08T17:38:48.833Z,22.00
2019-06-08T17:41:17.612Z,21.90
2019-06-08T17:43:46.298Z,21.90
2019-06-08T17:46:15.299Z,21.80
2019-06-08T17:48:44.295Z,21.80
2019-06-08T17:51:12.990Z,21.70
2019-06-08T17:53:43.203Z,21.70
2019-06-08T17:56:12.111Z,21.70
2019-06-08T17:58:41.270Z,21.70
2019-06-08T18:01:09.967Z,21.50
2019-06-08T18:03:41.085Z,21.60
2019-06-08T18:06:10.293Z,21.50
2019-06-08T18:08:40.988Z,21.50
2019-06-08T18:11:09.330Z,21.30
2019-06-08T18:13:40.795Z,21.30
2019-06-08T18:16:08.716Z,21.30
2019-06-08T18:18:39.277Z,21.20
2019-06-08T18:21:08.210Z,21.20
2019-06-08T18:23:39.172Z,21.10
2019-06-08T18:26:07.829Z,21.10
2019-06-08T18:28:39.215Z,21.10
2019-06-08T18:31:07.558Z,21.10
2019-06-08T18:33:39.917Z,21.00
2019-06-08T18:36:07.744Z,21.00
2019-06-08T18:38:39.803Z,20.90
2019-06-08T18:41:08.226Z,20.90
2019-06-08T18:43:39.596Z,20.90
2019-06-08T18:46:07.383Z,20.90
2019-06-08T18:48:39.831Z,20.80
2019-06-08T18:51:08.370Z,20.80
2019-06-08T18:53:55.910Z,20.70
2019-06-08T18:56:08.307Z,20.70
2019-06-08T18:58:37.704Z,20.60
2019-06-08T19:01:08.732Z,20.50
2019-06-08T19:03:40.315Z,20.40
2019-06-08T19:06:10.107Z,20.40
2019-06-08T19:08:41.674Z,20.30
2019-06-08T19:11:10.410Z,20.20
2019-06-08T19:13:41.059Z,20.00
2019-06-08T19:16:10.593Z,20.00
2019-06-08T19:18:43.649Z,19.90
2019-06-08T19:21:10.585Z,19.90
2019-06-08T19:23:42.021Z,19.90
2019-06-08T19:26:09.705Z,19.90
2019-06-08T19:28:42.838Z,20.00
2019-06-08T19:31:10.380Z,20.00
2019-06-08T19:33:40.106Z,20.00
2019-06-08T19:36:09.555Z,20.00
2019-06-08T19:38:39.725Z,20.00
2019-06-08T19:41:08.758Z,20.00
2019-06-08T19:43:39.042Z,20.00
2019-06-08T19:46:07.969Z,19.90
2019-06-08T19:48:39.250Z,19.90
2019-06-08T19:51:07.757Z,19.80
2019-06-08T19:53:42.140Z,19.70
2019-06-08T19:56:07.803Z,19.70
2019-06-08T19:58:50.646Z,19.50
2019-06-08T20:01:07.384Z,19.40
2019-06-08T20:03:37.908Z,19.40
2019-06-08T20:06:06.761Z,19.30
2019-06-08T20:08:37.376Z,19.20
2019-06-08T20:11:08.351Z,19.20
2019-06-08T20:13:37.562Z,19.20
2019-06-08T20:16:08.389Z,19.10
2019-06-08T20:18:37.681Z,19.00
2019-06-08T20:21:10.011Z,18.90
2019-06-08T20:23:38.261Z,18.90
2019-06-08T20:26:08.407Z,18.90
2019-06-08T20:28:37.524Z,18.90
2019-06-08T20:31:07.453Z,19.00
2019-06-08T20:33:37.840Z,19.10
2019-06-08T20:36:08.290Z,19.10
2019-06-08T20:38:41.594Z,19.00
2019-06-08T20:41:08.468Z,19.00
2019-06-08T20:43:38.183Z,18.90
2019-06-08T20:46:08.134Z,18.90
2019-06-08T20:48:37.803Z,18.90
2019-06-08T20:51:07.794Z,18.80
2019-06-08T20:53:38.807Z,18.80
2019-06-08T20:56:08.060Z,18.80
2019-06-08T20:58:37.219Z,18.70
2019-06-08T21:01:07.344Z,18.60
2019-06-08T21:03:36.458Z,18.50
2019-06-08T21:06:07.566Z,18.50
2019-06-08T21:08:37.234Z,18.40
2019-06-08T21:11:08.312Z,18.30
2019-06-08T21:13:37.458Z,18.30
2019-06-08T21:16:07.541Z,18.20
2019-06-08T21:18:37.940Z,18.10
2019-06-08T21:21:08.073Z,18.10
2019-06-08T21:23:36.911Z,17.90
2019-06-08T21:26:08.030Z,17.80
2019-06-08T21:28:38.412Z,17.80
2019-06-08T21:31:08.321Z,17.70
2019-06-08T21:33:37.980Z,17.70
2019-06-08T21:36:08.686Z,17.60
2019-06-08T21:38:37.701Z,17.60
2019-06-08T21:41:08.338Z,17.50
2019-06-08T21:43:37.607Z,17.40
2019-06-08T21:46:07.808Z,17.50
2019-06-08T21:48:38.163Z,17.40
2019-06-08T21:51:08.271Z,17.30
2019-06-08T21:53:38.219Z,17.30
2019-06-08T21:56:07.884Z,17.30
2019-06-08T21:58:37.819Z,17.20
2019-06-08T22:01:07.466Z,17.20
2019-06-08T22:03:38.072Z,17.20
2019-06-08T22:06:07.837Z,17.10
2019-06-08T22:08:37.600Z,17.10
2019-06-08T22:11:08.669Z,17.00
2019-06-08T22:13:37.537Z,17.00
2019-06-08T22:16:08.195Z,16.90
2019-06-08T22:18:38.081Z,16.90
2019-06-08T22:21:08.124Z,16.80
2019-06-08T22:23:37.113Z,16.80
2019-06-08T22:26:08.082Z,16.70
2019-06-08T22:28:37.762Z,16.60
2019-06-08T22:31:07.953Z,16.50
2019-06-08T22:33:37.817Z,16.50
2019-06-08T22:36:09.131Z,16.50
2019-06-08T22:38:37.543Z,16.50
2019-06-08T22:41:08.048Z,16.50
2019-06-08T22:43:37.574Z,16.50
2019-06-08T22:46:08.354Z,16.40
2019-06-08T22:48:38.434Z,16.50
2019-06-08T22:51:08.003Z,16.40
2019-06-08T22:53:38.364Z,16.40
2019-06-08T22:56:07.880Z,16.30
2019-06-08T22:58:37.420Z,16.20
2019-06-08T23:01:08.673Z,16.20
2019-06-08T23:03:36.553Z,16.20
2019-06-08T23:06:06.412Z,16.10
2019-06-08T23:08:37.539Z,16.00
2019-06-08T23:11:08.533Z,16.00
2019-06-08T23:13:37.650Z,15.90
2019-06-08T23:16:08.932Z,15.90
2019-06-08T23:18:37.416Z,15.80
2019-06-08T23:21:08.695Z,15.70
2019-06-08T23:23:38.110Z,15.70
2019-06-08T23:26:10.240Z,15.70
2019-06-08T23:28:37.700Z,15.80
2019-06-08T23:31:19.757Z,15.70
2019-06-08T23:33:38.714Z,15.70
2019-06-08T23:36:39.480Z,15.60
2019-06-08T23:38:37.901Z,15.50
2019-06-08T23:41:09.937Z,15.40
2019-06-08T23:43:38.428Z,15.30
2019-06-08T23:46:08.123Z,15.30
2019-06-08T23:48:37.529Z,15.20
2019-06-08T23:51:08.888Z,15.30
2019-06-08T23:53:38.177Z,15.30
2019-06-08T23:56:09.967Z,15.20
2019-06-08T23:58:37.386Z,15.10
